sensor_id;sensor_type;location;lat;lon;timestamp;P1;durP1;ratioP1;P2;durP2;ratioP2
20802;SDS011;10562;-33.856;151.182;2023-12-14T00:01:43;8.30;;;2.92;;
20802;SDS011;10562;-33.856;151.182;2023-12-14T00:04:14;6.82;;;2.60;;
20802;SDS011;10562;-33.856;151.182;2023-12-14T00:06:47;3.40;;;2.28;;
20802;SDS011;10562;-33.856;151.182;2023-12-14T00:09:18;5.22;;;2.45;;
20802;SDS011;10562;-33.856;151.182;2023-12-14T00:11:49;8.57;;;2.53;;
20802;SDS011;10562;-33.856;151.182;2023-12-14T00:14:19;6.53;;;2.60;;
20802;SDS011;10562;-33.856;151.182;2023-12-14T00:16:51;5.05;;;2.40;;
20802;SDS011;10562;-33.856;151.182;2023-12-14T00:19:25;8.05;;;2.80;;
20802;SDS011;10562;-33.856;151.182;2023-12-14T00:21:57;5.15;;;2.40;;
20802;SDS011;10562;-33.856;151.182;2023-12-14T00:24:31;8.30;;;2.80;;
20802;SDS011;10562;-33.856;151.182;2023-12-14T00:27:01;3.88;;;2.50;;
20802;SDS011;10562;-33.856;151.182;2023-12-14T00:29:32;4.82;;;2.45;;
20802;SDS011;10562;-33.856;151.182;2023-12-14T00:32:03;7.32;;;2.50;;
20802;SDS011;10562;-33.856;151.182;2023-12-14T00:34:34;4.72;;;2.20;;
20802;SDS011;10562;-33.856;151.182;2023-12-14T00:37:07;5.07;;;2.13;;
20802;SDS011;10562;-33.856;151.182;2023-12-14T00:39:38;6.38;;;2.08;;
20802;SDS011;10562;-33.856;151.182;2023-12-14T00:42:08;5.38;;;2.30;;
20802;SDS011;10562;-33.856;151.182;2023-12-14T00:44:39;6.57;;;2.30;;
20802;SDS011;10562;-33.856;151.182;2023-12-14T00:47:10;3.92;;;2.10;;
20802;SDS011;10562;-33.856;151.182;2023-12-14T00:49:41;6.30;;;2.35;;
20802;SDS011;10562;-33.856;151.182;2023-12-14T00:52:14;4.68;;;2.20;;
20802;SDS011;10562;-33.856;151.182;2023-12-14T00:54:45;5.22;;;2.35;;
20802;SDS011;10562;-33.856;151.182;2023-12-14T00:57:15;3.05;;;2.03;;
20802;SDS011;10562;-33.856;151.182;2023-12-14T00:59:46;4.63;;;2.05;;
20802;SDS011;10562;-33.856;151.182;2023-12-14T01:02:17;5.78;;;2.40;;
20802;SDS011;10562;-33.856;151.182;2023-12-14T01:04:48;5.30;;;2.15;;
20802;SDS011;10562;-33.856;151.182;2023-12-14T01:07:20;3.97;;;2.13;;
20802;SDS011;10562;-33.856;151.182;2023-12-14T01:09:51;7.53;;;2.10;;
20802;SDS011;10562;-33.856;151.182;2023-12-14T01:12:22;4.25;;;1.90;;
20802;SDS011;10562;-33.856;151.182;2023-12-14T01:14:52;4.00;;;1.90;;
20802;SDS011;10562;-33.856;151.182;2023-12-14T01:17:23;6.78;;;2.00;;
20802;SDS011;10562;-33.856;151.182;2023-12-14T01:19:55;3.95;;;1.77;;
20802;SDS011;10562;-33.856;151.182;2023-12-14T01:22:27;4.65;;;1.90;;
20802;SDS011;10562;-33.856;151.182;2023-12-14T01:24:58;5.20;;;2.20;;
20802;SDS011;10562;-33.856;151.182;2023-12-14T01:27:29;4.05;;;2.20;;
20802;SDS011;10562;-33.856;151.182;2023-12-14T01:30:00;5.68;;;1.88;;
20802;SDS011;10562;-33.856;151.182;2023-12-14T01:32:30;6.10;;;2.00;;
20802;SDS011;10562;-33.856;151.182;2023-12-14T01:35:01;4.85;;;2.15;;
20802;SDS011;10562;-33.856;151.182;2023-12-14T01:37:34;4.03;;;1.67;;
20802;SDS011;10562;-33.856;151.182;2023-12-14T01:40:05;4.60;;;1.80;;
20802;SDS011;10562;-33.856;151.182;2023-12-14T01:42:37;4.35;;;1.90;;
20802;SDS011;10562;-33.856;151.182;2023-12-14T01:45:08;3.50;;;1.85;;
20802;SDS011;10562;-33.856;151.182;2023-12-14T01:47:42;2.78;;;1.80;;
20802;SDS011;10562;-33.856;151.182;2023-12-14T01:50:14;5.20;;;1.90;;
20802;SDS011;10562;-33.856;151.182;2023-12-14T01:52:45;5.38;;;1.90;;
20802;SDS011;10562;-33.856;151.182;2023-12-14T01:55:16;3.63;;;1.73;;
20802;SDS011;10562;-33.856;151.182;2023-12-14T01:57:48;3.60;;;1.80;;
20802;SDS011;10562;-33.856;151.182;2023-12-14T02:00:20;2.83;;;1.60;;
20802;SDS011;10562;-33.856;151.182;2023-12-14T02:02:56;4.95;;;1.60;;
20802;SDS011;10562;-33.856;151.182;2023-12-14T02:05:27;5.30;;;1.63;;
20802;SDS011;10562;-33.856;151.182;2023-12-14T02:08:00;3.47;;;1.55;;
20802;SDS011;10562;-33.856;151.182;2023-12-14T02:10:31;2.97;;;1.58;;
20802;SDS011;10562;-33.856;151.182;2023-12-14T02:13:01;2.20;;;1.50;;
20802;SDS011;10562;-33.856;151.182;2023-12-14T02:15:33;4.88;;;1.67;;
20802;SDS011;10562;-33.856;151.182;2023-12-14T02:18:04;3.10;;;1.48;;
20802;SDS011;10562;-33.856;151.182;2023-12-14T02:20:35;4.03;;;1.70;;
20802;SDS011;10562;-33.856;151.182;2023-12-14T02:23:08;3.17;;;1.40;;
20802;SDS011;10562;-33.856;151.182;2023-12-14T02:25:38;3.17;;;1.40;;
20802;SDS011;10562;-33.856;151.182;2023-12-14T02:28:09;4.30;;;1.33;;
20802;SDS011;10562;-33.856;151.182;2023-12-14T02:30:40;6.57;;;1.30;;
20802;SDS011;10562;-33.856;151.182;2023-12-14T02:33:11;2.28;;;1.20;;
20802;SDS011;10562;-33.856;151.182;2023-12-14T02:35:42;4.80;;;1.17;;
20802;SDS011;10562;-33.856;151.182;2023-12-14T02:38:15;3.40;;;1.10;;
20802;SDS011;10562;-33.856;151.182;2023-12-14T02:40:47;3.90;;;1.00;;
20802;SDS011;10562;-33.856;151.182;2023-12-14T02:43:18;3.25;;;1.10;;
20802;SDS011;10562;-33.856;151.182;2023-12-14T02:45:49;2.15;;;0.90;;
20802;SDS011;10562;-33.856;151.182;2023-12-14T02:48:21;3.08;;;0.98;;
20802;SDS011;10562;-33.856;151.182;2023-12-14T02:50:52;3.25;;;1.20;;
20802;SDS011;10562;-33.856;151.182;2023-12-14T02:53:24;1.73;;;0.90;;
20802;SDS011;10562;-33.856;151.182;2023-12-14T02:55:56;3.20;;;1.15;;
20802;SDS011;10562;-33.856;151.182;2023-12-14T02:58:30;1.67;;;1.05;;
20802;SDS011;10562;-33.856;151.182;2023-12-14T03:01:01;3.40;;;1.00;;
20802;SDS011;10562;-33.856;151.182;2023-12-14T03:03:30;2.10;;;0.90;;
20802;SDS011;10562;-33.856;151.182;2023-12-14T03:06:01;5.57;;;1.35;;
20802;SDS011;10562;-33.856;151.182;2023-12-14T03:08:33;4.88;;;1.10;;
20802;SDS011;10562;-33.856;151.182;2023-12-14T03:11:04;4.05;;;1.10;;
20802;SDS011;10562;-33.856;151.182;2023-12-14T03:13:35;3.17;;;1.10;;
20802;SDS011;10562;-33.856;151.182;2023-12-14T03:16:06;5.05;;;1.10;;
20802;SDS011;10562;-33.856;151.182;2023-12-14T03:18:37;4.10;;;1.20;;
20802;SDS011;10562;-33.856;151.182;2023-12-14T03:21:08;4.15;;;0.93;;
20802;SDS011;10562;-33.856;151.182;2023-12-14T03:23:40;4.18;;;1.30;;
20802;SDS011;10562;-33.856;151.182;2023-12-14T03:26:11;3.28;;;1.10;;
20802;SDS011;10562;-33.856;151.182;2023-12-14T03:28:42;5.65;;;1.13;;
20802;SDS011;10562;-33.856;151.182;2023-12-14T03:31:13;2.22;;;1.20;;
20802;SDS011;10562;-33.856;151.182;2023-12-14T03:33:44;3.15;;;1.20;;
20802;SDS011;10562;-33.856;151.182;2023-12-14T03:36:15;6.85;;;1.30;;
20802;SDS011;10562;-33.856;151.182;2023-12-14T03:38:48;4.15;;;1.10;;
20802;SDS011;10562;-33.856;151.182;2023-12-14T03:41:19;2.80;;;1.15;;
20802;SDS011;10562;-33.856;151.182;2023-12-14T03:43:50;3.78;;;1.25;;
20802;SDS011;10562;-33.856;151.182;2023-12-14T03:46:21;4.15;;;1.40;;
20802;SDS011;10562;-33.856;151.182;2023-12-14T03:48:51;4.10;;;1.20;;
20802;SDS011;10562;-33.856;151.182;2023-12-14T03:51:22;3.13;;;1.30;;
20802;SDS011;10562;-33.856;151.182;2023-12-14T03:53:55;7.07;;;1.23;;
20802;SDS011;10562;-33.856;151.182;2023-12-14T03:56:25;2.83;;;1.20;;
20802;SDS011;10562;-33.856;151.182;2023-12-14T03:58:56;2.22;;;1.10;;
20802;SDS011;10562;-33.856;151.182;2023-12-14T04:01:27;3.05;;;1.33;;
20802;SDS011;10562;-33.856;151.182;2023-12-14T04:03:58;3.20;;;1.20;;
20802;SDS011;10562;-33.856;151.182;2023-12-14T04:06:28;5.57;;;1.20;;
20802;SDS011;10562;-33.856;151.182;2023-12-14T04:09:01;2.55;;;1.20;;
20802;SDS011;10562;-33.856;151.182;2023-12-14T04:11:32;4.65;;;1.17;;
20802;SDS011;10562;-33.856;151.182;2023-12-14T04:14:02;2.78;;;1.15;;
20802;SDS011;10562;-33.856;151.182;2023-12-14T04:16:33;4.18;;;1.20;;
20802;SDS011;10562;-33.856;151.182;2023-12-14T04:19:04;2.55;;;1.20;;
20802;SDS011;10562;-33.856;151.182;2023-12-14T04:21:36;5.70;;;1.13;;
20802;SDS011;10562;-33.856;151.182;2023-12-14T04:24:09;2.60;;;1.00;;
20802;SDS011;10562;-33.856;151.182;2023-12-14T04:26:40;1.60;;;0.98;;
20802;SDS011;10562;-33.856;151.182;2023-12-14T04:29:11;4.00;;;1.17;;
20802;SDS011;10562;-33.856;151.182;2023-12-14T04:31:42;3.15;;;1.10;;
20802;SDS011;10562;-33.856;151.182;2023-12-14T04:34:13;3.72;;;1.10;;
20802;SDS011;10562;-33.856;151.182;2023-12-14T04:36:45;3.42;;;1.13;;
20802;SDS011;10562;-33.856;151.182;2023-12-14T04:39:18;2.97;;;1.10;;
20802;SDS011;10562;-33.856;151.182;2023-12-14T04:41:49;3.78;;;1.00;;
20802;SDS011;10562;-33.856;151.182;2023-12-14T04:44:19;5.38;;;1.10;;
20802;SDS011;10562;-33.856;151.182;2023-12-14T04:46:51;5.00;;;1.17;;
20802;SDS011;10562;-33.856;151.182;2023-12-14T04:49:21;4.43;;;1.10;;
20802;SDS011;10562;-33.856;151.182;2023-12-14T04:51:52;1.88;;;0.90;;
20802;SDS011;10562;-33.856;151.182;2023-12-14T04:54:25;2.72;;;1.10;;
20802;SDS011;10562;-33.856;151.182;2023-12-14T04:56:59;2.25;;;1.05;;
20802;SDS011;10562;-33.856;151.182;2023-12-14T04:59:29;2.50;;;1.10;;
20802;SDS011;10562;-33.856;151.182;2023-12-14T05:02:00;2.42;;;1.13;;
20802;SDS011;10562;-33.856;151.182;2023-12-14T05:04:31;4.85;;;1.20;;
20802;SDS011;10562;-33.856;151.182;2023-12-14T05:07:02;1.65;;;1.10;;
20802;SDS011;10562;-33.856;151.182;2023-12-14T05:09:35;5.28;;;1.20;;
20802;SDS011;10562;-33.856;151.182;2023-12-14T05:12:05;4.43;;;1.00;;
20802;SDS011;10562;-33.856;151.182;2023-12-14T05:14:36;1.73;;;0.95;;
20802;SDS011;10562;-33.856;151.182;2023-12-14T05:17:10;3.35;;;1.00;;
20802;SDS011;10562;-33.856;151.182;2023-12-14T05:19:40;3.90;;;1.23;;
20802;SDS011;10562;-33.856;151.182;2023-12-14T05:22:12;3.50;;;1.13;;
20802;SDS011;10562;-33.856;151.182;2023-12-14T05:24:44;3.08;;;1.13;;
20802;SDS011;10562;-33.856;151.182;2023-12-14T05:27:16;6.88;;;1.00;;
20802;SDS011;10562;-33.856;151.182;2023-12-14T05:29:47;2.13;;;1.00;;
20802;SDS011;10562;-33.856;151.182;2023-12-14T05:32:17;2.05;;;1.00;;
20802;SDS011;10562;-33.856;151.182;2023-12-14T05:34:48;4.35;;;0.88;;
20802;SDS011;10562;-33.856;151.182;2023-12-14T05:37:19;2.60;;;1.05;;
20802;SDS011;10562;-33.856;151.182;2023-12-14T05:39:51;4.30;;;0.90;;
20802;SDS011;10562;-33.856;151.182;2023-12-14T05:42:22;1.75;;;0.90;;
20802;SDS011;10562;-33.856;151.182;2023-12-14T05:44:53;2.95;;;0.80;;
20802;SDS011;10562;-33.856;151.182;2023-12-14T05:47:24;2.78;;;0.80;;
20802;SDS011;10562;-33.856;151.182;2023-12-14T05:49:56;2.83;;;1.00;;
20802;SDS011;10562;-33.856;151.182;2023-12-14T05:52:27;3.60;;;1.13;;
20802;SDS011;10562;-33.856;151.182;2023-12-14T05:55:00;3.15;;;0.93;;
20802;SDS011;10562;-33.856;151.182;2023-12-14T05:57:30;5.57;;;0.90;;
20802;SDS011;10562;-33.856;151.182;2023-12-14T06:00:01;2.72;;;0.90;;
20802;SDS011;10562;-33.856;151.182;2023-12-14T06:02:33;3.42;;;1.20;;
20802;SDS011;10562;-33.856;151.182;2023-12-14T06:05:04;2.15;;;0.90;;
20802;SDS011;10562;-33.856;151.182;2023-12-14T06:07:36;3.17;;;1.00;;
20802;SDS011;10562;-33.856;151.182;2023-12-14T06:10:09;1.52;;;0.95;;
20802;SDS011;10562;-33.856;151.182;2023-12-14T06:12:40;1.85;;;0.98;;
20802;SDS011;10562;-33.856;151.182;2023-12-14T06:15:11;1.85;;;0.90;;
20802;SDS011;10562;-33.856;151.182;2023-12-14T06:17:41;2.80;;;1.00;;
20802;SDS011;10562;-33.856;151.182;2023-12-14T06:20:12;2.83;;;1.00;;
20802;SDS011;10562;-33.856;151.182;2023-12-14T06:22:43;2.88;;;1.10;;
20802;SDS011;10562;-33.856;151.182;2023-12-14T06:25:16;4.55;;;1.00;;
20802;SDS011;10562;-33.856;151.182;2023-12-14T06:27:47;3.10;;;1.05;;
20802;SDS011;10562;-33.856;151.182;2023-12-14T06:30:17;1.90;;;0.90;;
20802;SDS011;10562;-33.856;151.182;2023-12-14T06:32:48;2.58;;;1.00;;
20802;SDS011;10562;-33.856;151.182;2023-12-14T06:35:19;4.20;;;1.08;;
20802;SDS011;10562;-33.856;151.182;2023-12-14T06:37:50;7.57;;;1.40;;
20802;SDS011;10562;-33.856;151.182;2023-12-14T06:40:23;1.63;;;0.80;;
20802;SDS011;10562;-33.856;151.182;2023-12-14T06:42:56;2.17;;;1.00;;
20802;SDS011;10562;-33.856;151.182;2023-12-14T06:45:27;2.20;;;0.95;;
20802;SDS011;10562;-33.856;151.182;2023-12-14T06:47:57;5.15;;;1.20;;
20802;SDS011;10562;-33.856;151.182;2023-12-14T06:50:29;2.90;;;1.10;;
20802;SDS011;10562;-33.856;151.182;2023-12-14T06:53:00;2.78;;;1.40;;
20802;SDS011;10562;-33.856;151.182;2023-12-14T06:55:32;3.90;;;1.25;;
20802;SDS011;10562;-33.856;151.182;2023-12-14T06:58:03;2.80;;;1.20;;
20802;SDS011;10562;-33.856;151.182;2023-12-14T07:00:37;2.95;;;1.13;;
20802;SDS011;10562;-33.856;151.182;2023-12-14T07:03:08;3.17;;;1.08;;
20802;SDS011;10562;-33.856;151.182;2023-12-14T07:05:39;3.85;;;1.10;;
20802;SDS011;10562;-33.856;151.182;2023-12-14T07:08:09;4.30;;;1.00;;
20802;SDS011;10562;-33.856;151.182;2023-12-14T07:10:43;3.17;;;1.17;;
20802;SDS011;10562;-33.856;151.182;2023-12-14T07:13:14;2.47;;;1.00;;
20802;SDS011;10562;-33.856;151.182;2023-12-14T07:15:44;3.83;;;1.10;;
20802;SDS011;10562;-33.856;151.182;2023-12-14T07:18:15;2.85;;;1.00;;
20802;SDS011;10562;-33.856;151.182;2023-12-14T07:20:46;2.67;;;1.40;;
20802;SDS011;10562;-33.856;151.182;2023-12-14T07:23:17;3.42;;;1.10;;
20802;SDS011;10562;-33.856;151.182;2023-12-14T07:25:49;2.92;;;1.02;;
20802;SDS011;10562;-33.856;151.182;2023-12-14T07:28:21;2.65;;;1.08;;
20802;SDS011;10562;-33.856;151.182;2023-12-14T07:30:52;3.28;;;1.42;;
20802;SDS011;10562;-33.856;151.182;2023-12-14T07:33:24;2.58;;;1.02;;
20802;SDS011;10562;-33.856;151.182;2023-12-14T07:35:54;3.03;;;1.10;;
20802;SDS011;10562;-33.856;151.182;2023-12-14T07:38:25;3.30;;;1.10;;
20802;SDS011;10562;-33.856;151.182;2023-12-14T07:40:58;3.47;;;1.13;;
20802;SDS011;10562;-33.856;151.182;2023-12-14T07:43:29;4.60;;;1.20;;
20802;SDS011;10562;-33.856;151.182;2023-12-14T07:46:00;3.05;;;1.20;;
20802;SDS011;10562;-33.856;151.182;2023-12-14T07:48:30;2.92;;;1.10;;
20802;SDS011;10562;-33.856;151.182;2023-12-14T07:51:01;1.83;;;0.90;;
20802;SDS011;10562;-33.856;151.182;2023-12-14T07:53:32;4.88;;;1.20;;
20802;SDS011;10562;-33.856;151.182;2023-12-14T07:56:05;1.80;;;1.02;;
20802;SDS011;10562;-33.856;151.182;2023-12-14T07:58:36;1.75;;;1.15;;
20802;SDS011;10562;-33.856;151.182;2023-12-14T08:01:07;3.90;;;1.05;;
20802;SDS011;10562;-33.856;151.182;2023-12-14T08:03:38;2.15;;;1.00;;
20802;SDS011;10562;-33.856;151.182;2023-12-14T08:06:08;6.15;;;1.30;;
20802;SDS011;10562;-33.856;151.182;2023-12-14T08:08:39;3.28;;;1.33;;
20802;SDS011;10562;-33.856;151.182;2023-12-14T08:11:12;2.78;;;0.95;;
20802;SDS011;10562;-33.856;151.182;2023-12-14T08:13:42;2.97;;;1.23;;
20802;SDS011;10562;-33.856;151.182;2023-12-14T08:16:13;3.80;;;1.00;;
20802;SDS011;10562;-33.856;151.182;2023-12-14T08:18:44;5.13;;;1.65;;
20802;SDS011;10562;-33.856;151.182;2023-12-14T08:21:15;2.90;;;1.20;;
20802;SDS011;10562;-33.856;151.182;2023-12-14T08:23:46;3.80;;;1.38;;
20802;SDS011;10562;-33.856;151.182;2023-12-14T08:26:19;4.13;;;1.58;;
20802;SDS011;10562;-33.856;151.182;2023-12-14T08:28:50;3.35;;;1.80;;
20802;SDS011;10562;-33.856;151.182;2023-12-14T08:31:20;3.10;;;1.33;;
20802;SDS011;10562;-33.856;151.182;2023-12-14T08:33:52;5.10;;;1.50;;
20802;SDS011;10562;-33.856;151.182;2023-12-14T08:36:23;3.25;;;1.30;;
20802;SDS011;10562;-33.856;151.182;2023-12-14T08:38:54;3.50;;;1.40;;
20802;SDS011;10562;-33.856;151.182;2023-12-14T08:41:28;2.42;;;1.00;;
20802;SDS011;10562;-33.856;151.182;2023-12-14T08:43:58;2.35;;;1.13;;
20802;SDS011;10562;-33.856;151.182;2023-12-14T08:46:29;2.63;;;1.17;;
20802;SDS011;10562;-33.856;151.182;2023-12-14T08:49:08;2.28;;;1.00;;
20802;SDS011;10562;-33.856;151.182;2023-12-14T08:51:40;3.13;;;1.23;;
20802;SDS011;10562;-33.856;151.182;2023-12-14T08:54:10;2.17;;;1.10;;
20802;SDS011;10562;-33.856;151.182;2023-12-14T08:56:43;2.70;;;1.10;;
20802;SDS011;10562;-33.856;151.182;2023-12-14T08:59:14;1.67;;;1.02;;
20802;SDS011;10562;-33.856;151.182;2023-12-14T09:01:45;3.47;;;1.23;;
20802;SDS011;10562;-33.856;151.182;2023-12-14T09:04:16;2.95;;;1.10;;
20802;SDS011;10562;-33.856;151.182;2023-12-14T09:06:47;3.63;;;1.08;;
20802;SDS011;10562;-33.856;151.182;2023-12-14T09:09:18;1.42;;;0.90;;
20802;SDS011;10562;-33.856;151.182;2023-12-14T09:11:50;1.20;;;0.93;;
20802;SDS011;10562;-33.856;151.182;2023-12-14T09:14:21;1.52;;;1.00;;
20802;SDS011;10562;-33.856;151.182;2023-12-14T09:16:52;3.13;;;1.20;;
20802;SDS011;10562;-33.856;151.182;2023-12-14T09:19:22;2.83;;;1.10;;
20802;SDS011;10562;-33.856;151.182;2023-12-14T09:21:53;4.68;;;1.02;;
20802;SDS011;10562;-33.856;151.182;2023-12-14T09:24:27;1.73;;;1.10;;
20802;SDS011;10562;-33.856;151.182;2023-12-14T09:27:00;2.03;;;1.23;;
20802;SDS011;10562;-33.856;151.182;2023-12-14T09:29:31;3.38;;;1.30;;
20802;SDS011;10562;-33.856;151.182;2023-12-14T09:32:02;5.18;;;1.75;;
20802;SDS011;10562;-33.856;151.182;2023-12-14T09:34:34;4.70;;;2.20;;
20802;SDS011;10562;-33.856;151.182;2023-12-14T09:37:05;7.57;;;2.45;;
20802;SDS011;10562;-33.856;151.182;2023-12-14T09:39:37;25.98;;;5.20;;
20802;SDS011;10562;-33.856;151.182;2023-12-14T09:42:10;27.48;;;5.57;;
20802;SDS011;10562;-33.856;151.182;2023-12-14T09:44:41;33.58;;;6.38;;
20802;SDS011;10562;-33.856;151.182;2023-12-14T09:47:13;32.92;;;6.88;;
20802;SDS011;10562;-33.856;151.182;2023-12-14T09:49:44;36.80;;;7.28;;
20802;SDS011;10562;-33.856;151.182;2023-12-14T09:52:16;43.90;;;6.72;;
20802;SDS011;10562;-33.856;151.182;2023-12-14T09:54:47;47.03;;;7.18;;
20802;SDS011;10562;-33.856;151.182;2023-12-14T09:57:20;48.13;;;10.35;;
20802;SDS011;10562;-33.856;151.182;2023-12-14T09:59:52;47.80;;;8.93;;
20802;SDS011;10562;-33.856;151.182;2023-12-14T10:02:25;48.28;;;13.43;;
20802;SDS011;10562;-33.856;151.182;2023-12-14T10:04:56;45.22;;;7.93;;
20802;SDS011;10562;-33.856;151.182;2023-12-14T10:07:27;45.40;;;7.15;;
20802;SDS011;10562;-33.856;151.182;2023-12-14T10:10:08;47.92;;;7.25;;
20802;SDS011;10562;-33.856;151.182;2023-12-14T10:12:52;36.88;;;6.72;;
20802;SDS011;10562;-33.856;151.182;2023-12-14T10:15:24;37.45;;;6.38;;
20802;SDS011;10562;-33.856;151.182;2023-12-14T10:17:56;47.85;;;7.60;;
20802;SDS011;10562;-33.856;151.182;2023-12-14T10:20:30;39.25;;;6.28;;
20802;SDS011;10562;-33.856;151.182;2023-12-14T10:23:00;43.20;;;6.75;;
20802;SDS011;10562;-33.856;151.182;2023-12-14T10:25:32;48.38;;;6.85;;
20802;SDS011;10562;-33.856;151.182;2023-12-14T10:28:06;41.63;;;6.20;;
20802;SDS011;10562;-33.856;151.182;2023-12-14T10:30:37;45.90;;;6.57;;
20802;SDS011;10562;-33.856;151.182;2023-12-14T10:33:08;41.80;;;5.93;;
20802;SDS011;10562;-33.856;151.182;2023-12-14T10:35:40;37.35;;;6.47;;
20802;SDS011;10562;-33.856;151.182;2023-12-14T10:38:13;41.20;;;6.40;;
20802;SDS011;10562;-33.856;151.182;2023-12-14T10:40:46;39.80;;;5.88;;
20802;SDS011;10562;-33.856;151.182;2023-12-14T10:43:19;33.40;;;5.93;;
20802;SDS011;10562;-33.856;151.182;2023-12-14T10:45:50;38.70;;;6.60;;
20802;SDS011;10562;-33.856;151.182;2023-12-14T10:48:22;36.85;;;5.70;;
20802;SDS011;10562;-33.856;151.182;2023-12-14T10:50:53;38.78;;;5.93;;
20802;SDS011;10562;-33.856;151.182;2023-12-14T10:53:26;34.47;;;5.55;;
20802;SDS011;10562;-33.856;151.182;2023-12-14T10:55:57;38.70;;;5.72;;
20802;SDS011;10562;-33.856;151.182;2023-12-14T10:58:46;41.08;;;5.95;;
20802;SDS011;10562;-33.856;151.182;2023-12-14T11:01:19;37.33;;;5.68;;
20802;SDS011;10562;-33.856;151.182;2023-12-14T11:03:53;35.28;;;5.72;;
20802;SDS011;10562;-33.856;151.182;2023-12-14T11:06:31;30.60;;;5.47;;
20802;SDS011;10562;-33.856;151.182;2023-12-14T11:09:04;37.42;;;5.43;;
20802;SDS011;10562;-33.856;151.182;2023-12-14T11:11:43;33.80;;;5.50;;
20802;SDS011;10562;-33.856;151.182;2023-12-14T11:14:27;33.40;;;4.78;;
20802;SDS011;10562;-33.856;151.182;2023-12-14T11:17:01;29.50;;;4.78;;
20802;SDS011;10562;-33.856;151.182;2023-12-14T11:19:39;29.17;;;4.93;;
20802;SDS011;10562;-33.856;151.182;2023-12-14T11:22:17;30.02;;;5.05;;
20802;SDS011;10562;-33.856;151.182;2023-12-14T11:24:54;32.42;;;5.57;;
20802;SDS011;10562;-33.856;151.182;2023-12-14T11:27:28;30.00;;;4.82;;
20802;SDS011;10562;-33.856;151.182;2023-12-14T11:30:02;37.20;;;5.40;;
20802;SDS011;10562;-33.856;151.182;2023-12-14T11:32:33;34.47;;;5.53;;
20802;SDS011;10562;-33.856;151.182;2023-12-14T11:35:05;33.90;;;4.63;;
20802;SDS011;10562;-33.856;151.182;2023-12-14T11:37:38;30.60;;;4.60;;
20802;SDS011;10562;-33.856;151.182;2023-12-14T11:40:10;32.58;;;4.50;;
20802;SDS011;10562;-33.856;151.182;2023-12-14T11:42:42;36.63;;;4.93;;
20802;SDS011;10562;-33.856;151.182;2023-12-14T11:45:17;34.08;;;4.80;;
20802;SDS011;10562;-33.856;151.182;2023-12-14T11:47:48;35.83;;;4.53;;
20802;SDS011;10562;-33.856;151.182;2023-12-14T11:50:18;28.13;;;4.75;;
20802;SDS011;10562;-33.856;151.182;2023-12-14T11:52:49;27.70;;;4.38;;
20802;SDS011;10562;-33.856;151.182;2023-12-14T11:55:20;36.50;;;5.03;;
20802;SDS011;10562;-33.856;151.182;2023-12-14T11:57:51;36.97;;;4.72;;
20802;SDS011;10562;-33.856;151.182;2023-12-14T12:00:25;33.50;;;4.82;;
20802;SDS011;10562;-33.856;151.182;2023-12-14T12:03:07;29.00;;;4.70;;
20802;SDS011;10562;-33.856;151.182;2023-12-14T12:05:39;30.55;;;4.53;;
20802;SDS011;10562;-33.856;151.182;2023-12-14T12:08:11;31.88;;;4.65;;
20802;SDS011;10562;-33.856;151.182;2023-12-14T12:10:42;26.65;;;4.05;;
20802;SDS011;10562;-33.856;151.182;2023-12-14T12:13:13;29.23;;;4.85;;
20802;SDS011;10562;-33.856;151.182;2023-12-14T12:15:47;33.35;;;4.85;;
20802;SDS011;10562;-33.856;151.182;2023-12-14T12:18:17;29.00;;;4.00;;
20802;SDS011;10562;-33.856;151.182;2023-12-14T12:20:48;26.15;;;4.20;;
20802;SDS011;10562;-33.856;151.182;2023-12-14T12:23:19;28.98;;;4.20;;
20802;SDS011;10562;-33.856;151.182;2023-12-14T12:25:49;23.58;;;4.00;;
20802;SDS011;10562;-33.856;151.182;2023-12-14T12:28:21;32.58;;;4.10;;
20802;SDS011;10562;-33.856;151.182;2023-12-14T12:30:54;28.35;;;4.35;;
20802;SDS011;10562;-33.856;151.182;2023-12-14T12:33:25;20.73;;;3.60;;
20802;SDS011;10562;-33.856;151.182;2023-12-14T12:35:56;28.83;;;4.95;;
20802;SDS011;10562;-33.856;151.182;2023-12-14T12:38:27;23.88;;;3.78;;
20802;SDS011;10562;-33.856;151.182;2023-12-14T12:40:58;26.77;;;4.20;;
20802;SDS011;10562;-33.856;151.182;2023-12-14T12:43:28;25.08;;;4.47;;
20802;SDS011;10562;-33.856;151.182;2023-12-14T12:46:01;33.67;;;4.55;;
20802;SDS011;10562;-33.856;151.182;2023-12-14T12:48:32;23.65;;;4.10;;
20802;SDS011;10562;-33.856;151.182;2023-12-14T12:51:03;26.00;;;4.38;;
20802;SDS011;10562;-33.856;151.182;2023-12-14T12:53:34;27.80;;;4.18;;
20802;SDS011;10562;-33.856;151.182;2023-12-14T12:56:05;23.65;;;4.10;;
20802;SDS011;10562;-33.856;151.182;2023-12-14T12:58:36;29.17;;;4.20;;
20802;SDS011;10562;-33.856;151.182;2023-12-14T13:01:09;28.10;;;4.00;;
20802;SDS011;10562;-33.856;151.182;2023-12-14T13:03:39;25.48;;;4.05;;
20802;SDS011;10562;-33.856;151.182;2023-12-14T13:06:10;24.73;;;4.28;;
20802;SDS011;10562;-33.856;151.182;2023-12-14T13:08:41;24.67;;;3.80;;
20802;SDS011;10562;-33.856;151.182;2023-12-14T13:11:12;22.60;;;3.88;;
20802;SDS011;10562;-33.856;151.182;2023-12-14T13:13:43;21.70;;;3.70;;
20802;SDS011;10562;-33.856;151.182;2023-12-14T13:16:15;24.77;;;4.28;;
20802;SDS011;10562;-33.856;151.182;2023-12-14T13:18:46;23.10;;;3.65;;
20802;SDS011;10562;-33.856;151.182;2023-12-14T13:21:17;27.02;;;3.75;;
20802;SDS011;10562;-33.856;151.182;2023-12-14T13:23:48;27.20;;;3.78;;
20802;SDS011;10562;-33.856;151.182;2023-12-14T13:26:19;28.35;;;4.10;;
20802;SDS011;10562;-33.856;151.182;2023-12-14T13:28:50;20.98;;;3.63;;
20802;SDS011;10562;-33.856;151.182;2023-12-14T13:31:22;24.08;;;3.60;;
20802;SDS011;10562;-33.856;151.182;2023-12-14T13:33:53;25.35;;;3.75;;
20802;SDS011;10562;-33.856;151.182;2023-12-14T13:36:24;22.13;;;3.47;;
20802;SDS011;10562;-33.856;151.182;2023-12-14T13:38:56;24.13;;;4.30;;
20802;SDS011;10562;-33.856;151.182;2023-12-14T13:41:28;27.15;;;3.58;;
20802;SDS011;10562;-33.856;151.182;2023-12-14T13:44:00;21.08;;;3.83;;
20802;SDS011;10562;-33.856;151.182;2023-12-14T13:46:33;20.73;;;3.50;;
20802;SDS011;10562;-33.856;151.182;2023-12-14T13:49:04;22.88;;;3.75;;
20802;SDS011;10562;-33.856;151.182;2023-12-14T13:51:36;20.42;;;3.58;;
20802;SDS011;10562;-33.856;151.182;2023-12-14T13:54:06;15.50;;;3.08;;
20802;SDS011;10562;-33.856;151.182;2023-12-14T13:56:37;21.83;;;3.83;;
20802;SDS011;10562;-33.856;151.182;2023-12-14T13:59:09;22.98;;;3.67;;
20802;SDS011;10562;-33.856;151.182;2023-12-14T14:01:41;23.77;;;3.42;;
20802;SDS011;10562;-33.856;151.182;2023-12-14T14:04:12;23.52;;;3.55;;
20802;SDS011;10562;-33.856;151.182;2023-12-14T14:06:43;21.65;;;3.78;;
20802;SDS011;10562;-33.856;151.182;2023-12-14T14:09:14;30.45;;;3.90;;
20802;SDS011;10562;-33.856;151.182;2023-12-14T14:11:45;23.05;;;3.65;;
20802;SDS011;10562;-33.856;151.182;2023-12-14T14:14:17;22.08;;;3.47;;
20802;SDS011;10562;-33.856;151.182;2023-12-14T14:16:51;23.70;;;3.40;;
20802;SDS011;10562;-33.856;151.182;2023-12-14T14:19:22;22.05;;;3.35;;
20802;SDS011;10562;-33.856;151.182;2023-12-14T14:21:52;24.08;;;3.45;;
20802;SDS011;10562;-33.856;151.182;2023-12-14T14:24:23;22.80;;;3.60;;
20802;SDS011;10562;-33.856;151.182;2023-12-14T14:26:54;28.33;;;3.90;;
20802;SDS011;10562;-33.856;151.182;2023-12-14T14:29:24;24.10;;;3.55;;